Time;durP1;ratioP1;P1;durP2;ratioP2;P2;SDS_P1;SDS_P2;PMS_P1;PMS_P2;Temp;Humidity;BMP_temperature;BMP_pressure;BME280_temperature;BME280_humidity;BME280_pressure;Samples;Min_cycle;Max_cycle;Signal;HPM_P1;HPM_P2
2021/01/17 00:00:36;;;;;;;;;;;13.80;54.60;;;;;;2058163;28;19952;-73
2021/01/17 00:01:44;;;;;;;;;;;13.80;54.60;;;;;;2058720;28;19949;-73
2021/01/17 00:02:46;;;;;;;;;;;14.00;54.30;;;;;;2058333;28;20298;-75
2021/01/17 00:03:47;;;;;;;;;;;14.10;53.90;;;;;;2061571;28;19926;-74
2021/01/17 00:04:49;;;;;;;;;;;14.20;53.90;;;;;;2065434;28;19926;-74
2021/01/17 00:05:50;;;;;;;;;;;14.00;54.00;;;;;;2065591;28;19926;-74
2021/01/17 00:06:53;;;;;;;;;;;13.90;54.10;;;;;;2066103;28;20390;-73
2021/01/17 00:07:55;;;;;;;;;;;14.10;54.20;;;;;;2066158;28;20298;-73
2021/01/17 00:08:56;;;;;;;;;;;14.10;54.10;;;;;;2065604;28;19926;-74
2021/01/17 00:09:58;;;;;;;;;;;14.00;54.30;;;;;;2065801;28;19926;-74
2021/01/17 00:10:59;;;;;;;;;;;13.90;54.50;;;;;;2065095;28;19926;-74
2021/01/17 00:12:03;;;;;;;;;;;14.00;54.40;;;;;;2065194;28;19926;-73
2021/01/17 00:13:06;;;;;;;;;;;13.60;55.40;;;;;;2065062;28;19926;-73
2021/01/17 00:14:09;;;;;;;;;;;13.80;54.90;;;;;;2065328;28;19926;-73
2021/01/17 00:15:11;;;;;;;;;;;13.90;54.50;;;;;;2064998;28;19933;-73
2021/01/17 00:16:12;;;;;;;;;;;13.60;55.50;;;;;;2064990;28;19973;-74
2021/01/17 00:17:13;;;;;;;;;;;13.60;56.50;;;;;;2065097;28;19926;-73
2021/01/17 00:18:15;;;;;;;;;;;13.40;56.00;;;;;;2065154;28;19977;-74
2021/01/17 00:19:23;;;;;;;;;;;13.70;55.40;;;;;;2065288;28;19926;-73
2021/01/17 00:20:25;;;;;;;;;;;13.90;54.80;;;;;;2065234;28;19933;-74
2021/01/17 00:21:26;;;;;;;;;;;13.80;55.60;;;;;;2065245;28;19933;-73
2021/01/17 00:22:28;;;;;;;;;;;13.60;55.60;;;;;;2065194;28;20480;-73
2021/01/17 00:23:29;;;;;;;;;;;13.60;55.70;;;;;;2065069;28;19926;-74
2021/01/17 00:24:31;;;;;;;;;;;13.60;56.60;;;;;;2065117;28;19933;-73
2021/01/17 00:25:33;;;;;;;;;;;13.40;56.10;;;;;;2065274;28;19926;-74
2021/01/17 00:26:34;;;;;;;;;;;13.40;56.80;;;;;;2065962;28;19926;-74
2021/01/17 00:27:36;;;;;;;;;;;13.40;56.20;;;;;;2066876;28;19925;-74
2021/01/17 00:28:37;;;;;;;;;;;13.70;55.70;;;;;;2067759;28;19933;-74
2021/01/17 00:29:40;;;;;;;;;;;13.50;56.30;;;;;;2066725;28;19977;-73
2021/01/17 00:30:41;;;;;;;;;;;13.60;55.90;;;;;;2073132;28;19925;-73
2021/01/17 00:31:44;;;;;;;;;;;13.40;56.60;;;;;;2076273;28;20345;-74
2021/01/17 00:32:49;;;;;;;;;;;13.30;58.40;;;;;;2074496;28;19933;-74
2021/01/17 00:33:50;;;;;;;;;;;13.50;56.70;;;;;;2073414;28;19926;-74
2021/01/17 00:34:51;;;;;;;;;;;13.40;57.50;;;;;;2073118;28;19933;-73
2021/01/17 00:35:53;;;;;;;;;;;13.50;56.30;;;;;;2073292;28;19933;-73
2021/01/17 00:36:54;;;;;;;;;;;13.80;55.40;;;;;;2073405;28;19926;-74
2021/01/17 00:37:58;;;;;;;;;;;13.80;56.00;;;;;;2064683;28;19926;-73
2021/01/17 00:39:00;;;;;;;;;;;13.70;55.90;;;;;;2057045;28;19926;-73
2021/01/17 00:40:02;;;;;;;;;;;13.70;55.70;;;;;;2057039;28;19926;-74
2021/01/17 00:41:04;;;;;;;;;;;13.40;58.20;;;;;;2056864;28;20402;-73
2021/01/17 00:42:08;;;;;;;;;;;13.40;56.50;;;;;;2056535;28;19926;-74
2021/01/17 00:43:09;;;;;;;;;;;13.10;58.90;;;;;;2048857;28;19941;-73
2021/01/17 00:44:10;;;;;;;;;;;13.10;58.10;;;;;;2056478;28;19926;-73
2021/01/17 00:45:13;;;;;;;;;;;13.20;57.60;;;;;;2057050;28;19926;-73
2021/01/17 00:46:15;;;;;;;;;;;13.20;58.90;;;;;;2056339;28;19926;-73
2021/01/17 00:47:17;;;;;;;;;;;13.10;57.90;;;;;;2048504;28;19956;-73
2021/01/17 00:48:18;;;;;;;;;;;13.20;58.70;;;;;;2056215;28;20402;-73
2021/01/17 00:49:20;;;;;;;;;;;13.00;59.40;;;;;;2056831;28;19926;-73
2021/01/17 00:50:22;;;;;;;;;;;12.70;60.20;;;;;;2057308;28;19926;-73
2021/01/17 00:51:24;;;;;;;;;;;12.40;60.70;;;;;;2057364;28;19957;-73
2021/01/17 00:52:25;;;;;;;;;;;12.70;60.20;;;;;;2057343;28;20304;-74
2021/01/17 00:53:28;;;;;;;;;;;12.80;60.30;;;;;;2057725;28;20065;-74
2021/01/17 00:54:29;;;;;;;;;;;12.70;61.10;;;;;;2057962;28;19938;-74
2021/01/17 00:55:31;;;;;;;;;;;12.80;59.20;;;;;;2057771;28;20382;-73
2021/01/17 00:56:32;;;;;;;;;;;13.00;59.30;;;;;;2057729;28;19926;-73
2021/01/17 00:57:34;;;;;;;;;;;12.70;60.50;;;;;;2058038;28;19926;-73
2021/01/17 00:58:35;;;;;;;;;;;12.60;61.30;;;;;;2057847;28;19930;-73
2021/01/17 00:59:36;;;;;;;;;;;12.40;61.60;;;;;;2057842;28;19927;-74
2021/01/17 01:00:39;;;;;;;;;;;12.50;62.60;;;;;;2057558;28;19926;-73
2021/01/17 01:01:41;;;;;;;;;;;12.50;61.50;;;;;;2056949;28;19934;-73
2021/01/17 01:02:42;;;;;;;;;;;12.90;59.70;;;;;;2056758;28;20192;-73
2021/01/17 01:03:44;;;;;;;;;;;12.90;59.40;;;;;;2060485;28;19934;-73
2021/01/17 01:04:45;;;;;;;;;;;13.10;58.90;;;;;;2064506;28;19926;-74
2021/01/17 01:05:47;;;;;;;;;;;12.70;60.50;;;;;;2064847;28;20016;-73
2021/01/17 01:06:49;;;;;;;;;;;12.80;59.70;;;;;;2064118;28;19933;-73
2021/01/17 01:07:51;;;;;;;;;;;12.70;60.60;;;;;;2064186;28;20054;-74
2021/01/17 01:08:52;;;;;;;;;;;12.80;60.00;;;;;;2064932;28;19926;-74
2021/01/17 01:09:54;;;;;;;;;;;13.10;59.30;;;;;;2064902;28;19936;-73
2021/01/17 01:10:55;;;;;;;;;;;13.10;58.90;;;;;;2064226;28;19925;-73
2021/01/17 01:11:57;;;;;;;;;;;13.10;60.10;;;;;;2064302;28;19932;-73
2021/01/17 01:12:58;;;;;;;;;;;12.80;59.60;;;;;;2065446;28;20421;-73
2021/01/17 01:13:59;;;;;;;;;;;13.10;60.00;;;;;;2064945;28;20499;-73
2021/01/17 01:15:01;;;;;;;;;;;12.70;61.60;;;;;;2064925;28;19925;-73
2021/01/17 01:16:03;;;;;;;;;;;12.70;60.70;;;;;;2065038;28;19926;-73
2021/01/17 01:17:05;;;;;;;;;;;12.40;61.70;;;;;;2065571;28;19926;-73
2021/01/17 01:18:07;;;;;;;;;;;12.70;61.30;;;;;;2066063;28;19976;-74
2021/01/17 01:19:08;;;;;;;;;;;13.00;59.60;;;;;;2066079;28;20401;-74
2021/01/17 01:20:10;;;;;;;;;;;13.00;60.10;;;;;;2065709;28;19929;-74
2021/01/17 01:21:12;;;;;;;;;;;12.90;59.90;;;;;;2066037;28;19933;-74
2021/01/17 01:22:13;;;;;;;;;;;13.10;59.20;;;;;;2065956;28;19940;-73
2021/01/17 01:23:14;;;;;;;;;;;13.00;59.20;;;;;;2065957;28;20399;-73
2021/01/17 01:24:16;;;;;;;;;;;13.20;58.50;;;;;;2065811;28;19925;-74
2021/01/17 01:25:17;;;;;;;;;;;13.30;58.10;;;;;;2066003;28;19926;-73
2021/01/17 01:26:21;;;;;;;;;;;13.50;57.60;;;;;;2065534;28;20010;-73
2021/01/17 01:27:22;;;;;;;;;;;13.60;57.10;;;;;;2065902;28;19933;-73
2021/01/17 01:28:24;;;;;;;;;;;13.60;57.10;;;;;;2065287;28;20088;-74
2021/01/17 01:29:26;;;;;;;;;;;13.40;57.60;;;;;;2065729;28;20406;-73
2021/01/17 01:30:27;;;;;;;;;;;13.30;58.40;;;;;;2065812;28;19926;-73
2021/01/17 01:31:29;;;;;;;;;;;13.10;59.80;;;;;;2065517;28;20310;-73
2021/01/17 01:32:31;;;;;;;;;;;13.10;58.90;;;;;;2072432;28;20052;-73
2021/01/17 01:33:33;;;;;;;;;;;13.20;58.50;;;;;;2073028;28;20012;-73
2021/01/17 01:34:35;;;;;;;;;;;13.50;57.50;;;;;;2072134;28;20398;-73
2021/01/17 01:35:37;;;;;;;;;;;13.40;57.60;;;;;;2073457;28;19932;-73
2021/01/17 01:36:38;;;;;;;;;;;13.30;58.30;;;;;;2073141;28;19925;-73
2021/01/17 01:37:40;;;;;;;;;;;13.40;57.90;;;;;;2069578;28;19930;-73
2021/01/17 01:38:42;;;;;;;;;;;13.30;58.80;;;;;;2057307;28;19933;-74
2021/01/17 01:39:44;;;;;;;;;;;13.50;57.90;;;;;;2057891;28;19933;-73
2021/01/17 01:40:52;;;;;;;;;;;13.30;58.10;;;;;;2058296;28;19934;-73
2021/01/17 01:41:53;;;;;;;;;;;13.40;58.00;;;;;;2057076;28;19965;-73
2021/01/17 01:42:54;;;;;;;;;;;13.50;58.10;;;;;;2057228;28;19926;-73
2021/01/17 01:43:56;;;;;;;;;;;13.60;57.10;;;;;;2057522;28;20410;-73
2021/01/17 01:44:57;;;;;;;;;;;13.60;57.80;;;;;;2056694;28;20390;-73
2021/01/17 01:45:59;;;;;;;;;;;13.50;58.00;;;;;;2057006;28;20311;-73
2021/01/17 01:47:02;;;;;;;;;;;13.60;57.20;;;;;;2056922;28;19926;-73
2021/01/17 01:48:06;;;;;;;;;;;13.50;57.80;;;;;;2057028;28;20284;-74
2021/01/17 01:49:08;;;;;;;;;;;13.50;57.70;;;;;;2057328;28;20014;-73
2021/01/17 01:50:10;;;;;;;;;;;13.40;58.50;;;;;;2057468;28;20400;-74
2021/01/17 01:51:12;;;;;;;;;;;13.60;57.40;;;;;;2057837;28;20295;-73
2021/01/17 01:52:13;;;;;;;;;;;13.80;56.90;;;;;;2058263;28;19926;-74
2021/01/17 01:53:15;;;;;;;;;;;13.80;56.80;;;;;;2057052;28;19926;-74
2021/01/17 01:54:16;;;;;;;;;;;13.70;57.20;;;;;;2057376;28;19926;-73
2021/01/17 01:55:18;;;;;;;;;;;13.60;58.30;;;;;;2057227;28;19933;-73
2021/01/17 01:56:19;;;;;;;;;;;13.30;58.30;;;;;;2056554;28;19926;-74
2021/01/17 01:57:21;;;;;;;;;;;13.00;60.20;;;;;;2056458;28;19926;-73
2021/01/17 01:58:23;;;;;;;;;;;12.80;61.80;;;;;;2056668;28;19933;-73
2021/01/17 01:59:25;;;;;;;;;;;12.90;60.70;;;;;;2056880;28;20326;-73
2021/01/17 02:00:27;;;;;;;;;;;12.90;60.40;;;;;;2057648;28;20097;-74
2021/01/17 02:01:28;;;;;;;;;;;13.10;61.60;;;;;;2057974;28;20466;-73
2021/01/17 02:02:39;;;;;;;;;;;12.50;62.30;;;;;;2057494;28;19957;-73
2021/01/17 02:03:44;;;;;;;;;;;12.70;62.90;;;;;;2061232;28;19934;-73
2021/01/17 02:04:46;;;;;;;;;;;12.70;61.20;;;;;;2066798;28;19934;-74
2021/01/17 02:05:47;;;;;;;;;;;12.70;63.20;;;;;;2066627;28;19972;-74
2021/01/17 02:06:53;;;;;;;;;;;12.60;62.20;;;;;;2066638;28;19925;-73
2021/01/17 02:08:05;;;;;;;;;;;12.60;62.60;;;;;;2067609;28;19925;-74
2021/01/17 02:09:17;;;;;;;;;;;12.90;60.60;;;;;;2067654;28;19929;-73
2021/01/17 02:10:19;;;;;;;;;;;12.70;62.80;;;;;;2066675;28;19926;-73
2021/01/17 02:11:24;;;;;;;;;;;12.80;61.60;;;;;;2066312;28;19934;-73
2021/01/17 02:12:28;;;;;;;;;;;12.90;60.90;;;;;;2066694;28;20383;-73
2021/01/17 02:13:31;;;;;;;;;;;12.80;62.00;;;;;;2066943;28;19925;-73
2021/01/17 02:14:36;;;;;;;;;;;12.60;63.60;;;;;;2065719;28;19969;-73
2021/01/17 02:15:40;;;;;;;;;;;12.80;62.00;;;;;;2065979;28;20418;-74
2021/01/17 02:16:43;;;;;;;;;;;13.00;60.20;;;;;;2066536;28;20418;-73
2021/01/17 02:17:47;;;;;;;;;;;13.00;60.90;;;;;;2066408;28;19926;-73
2021/01/17 02:18:51;;;;;;;;;;;12.90;61.50;;;;;;2066060;28;19926;-73
2021/01/17 02:20:08;;;;;;;;;;;12.90;62.70;;;;;;2066488;28;19932;-73
2021/01/17 02:21:10;;;;;;;;;;;13.00;60.90;;;;;;2058068;28;19937;-73
2021/01/17 02:22:13;;;;;;;;;;;12.70;63.60;;;;;;2058926;28;19937;-73
2021/01/17 02:23:16;;;;;;;;;;;12.50;64.40;;;;;;2058906;28;19926;-74
2021/01/17 02:24:19;;;;;;;;;;;12.20;64.90;;;;;;2059189;28;19927;-74
2021/01/17 02:25:21;;;;;;;;;;;12.40;63.70;;;;;;2060223;28;19930;-73
2021/01/17 02:26:28;;;;;;;;;;;12.80;62.00;;;;;;2058582;28;19972;-74
2021/01/17 02:27:30;;;;;;;;;;;13.00;62.60;;;;;;2059187;28;19933;-73
2021/01/17 02:28:32;;;;;;;;;;;12.60;64.60;;;;;;2067368;28;20157;-73
2021/01/17 02:29:34;;;;;;;;;;;12.50;63.80;;;;;;2067583;28;19925;-73
2021/01/17 02:30:37;;;;;;;;;;;12.60;63.10;;;;;;2067334;28;19933;-74
2021/01/17 02:31:40;;;;;;;;;;;12.80;62.70;;;;;;2070284;28;19926;-74
2021/01/17 02:32:45;;;;;;;;;;;12.80;62.10;;;;;;2076047;28;20377;-73
2021/01/17 02:33:47;;;;;;;;;;;13.00;61.00;;;;;;2076135;28;19925;-73
2021/01/17 02:34:49;;;;;;;;;;;13.10;60.20;;;;;;2075381;28;19932;-73
2021/01/17 02:35:53;;;;;;;;;;;13.10;61.80;;;;;;2075328;28;20488;-73
2021/01/17 02:36:59;;;;;;;;;;;12.80;61.10;;;;;;2074922;28;19925;-74
2021/01/17 02:38:07;;;;;;;;;;;13.10;60.50;;;;;;2070791;28;20293;-74
2021/01/17 02:39:13;;;;;;;;;;;12.90;61.10;;;;;;2067759;28;19972;-73
2021/01/17 02:40:24;;;;;;;;;;;13.00;60.70;;;;;;2067152;28;19933;-73
2021/01/17 02:41:30;;;;;;;;;;;13.10;60.30;;;;;;2066543;28;20388;-73
2021/01/17 02:42:32;;;;;;;;;;;13.30;60.00;;;;;;2067638;28;19925;-73
2021/01/17 02:43:33;;;;;;;;;;;13.50;58.80;;;;;;2067406;28;19925;-73
2021/01/17 02:44:35;;;;;;;;;;;13.40;59.10;;;;;;2067443;28;19933;-74
2021/01/17 02:45:36;;;;;;;;;;;13.30;59.30;;;;;;2066555;28;20298;-73
2021/01/17 02:46:38;;;;;;;;;;;13.50;59.00;;;;;;2067178;28;19950;-73
2021/01/17 02:47:39;;;;;;;;;;;13.50;58.70;;;;;;2067000;28;19929;-74
2021/01/17 02:48:45;;;;;;;;;;;13.60;58.60;;;;;;2067260;28;19987;-74
2021/01/17 02:49:48;;;;;;;;;;;13.80;57.60;;;;;;2067391;28;19937;-74
2021/01/17 02:50:49;;;;;;;;;;;14.00;57.00;;;;;;2066011;28;20405;-73
2021/01/17 02:51:51;;;;;;;;;;;14.10;56.90;;;;;;2066471;28;20272;-73
2021/01/17 02:52:55;;;;;;;;;;;14.00;56.50;;;;;;2066984;28;20010;-74
2021/01/17 02:54:01;;;;;;;;;;;14.10;56.50;;;;;;2066024;28;20290;-73
2021/01/17 02:55:03;;;;;;;;;;;14.10;56.30;;;;;;2067224;28;20413;-73
2021/01/17 02:56:06;;;;;;;;;;;14.00;57.00;;;;;;2067210;28;20041;-73
2021/01/17 02:57:09;;;;;;;;;;;14.00;56.40;;;;;;2066885;28;20282;-73
2021/01/17 02:58:10;;;;;;;;;;;14.10;56.10;;;;;;2066418;28;19965;-73
2021/01/17 02:59:13;;;;;;;;;;;14.30;55.60;;;;;;2066289;28;19926;-73
2021/01/17 03:00:16;;;;;;;;;;;14.40;55.40;;;;;;2066410;28;19925;-73
2021/01/17 03:01:18;;;;;;;;;;;14.40;55.30;;;;;;2065634;28;19926;-73
2021/01/17 03:02:21;;;;;;;;;;;14.40;55.40;;;;;;2065657;28;19937;-73
2021/01/17 03:03:29;;;;;;;;;;;14.40;55.50;;;;;;2066101;28;19933;-73
2021/01/17 03:04:34;;;;;;;;;;;14.30;55.40;;;;;;2058237;28;19937;-74
2021/01/17 03:05:35;;;;;;;;;;;14.30;55.40;;;;;;2065818;28;20323;-73
2021/01/17 03:06:39;;;;;;;;;;;14.40;55.10;;;;;;2066054;28;19926;-73
2021/01/17 03:07:45;;;;;;;;;;;14.50;54.80;;;;;;2065994;28;20375;-73
2021/01/17 03:08:47;;;;;;;;;;;14.60;54.70;;;;;;2066018;28;19925;-73
2021/01/17 03:09:50;;;;;;;;;;;14.50;54.90;;;;;;2066047;28;19945;-73
2021/01/17 03:10:51;;;;;;;;;;;14.40;55.30;;;;;;2066043;28;19925;-73
2021/01/17 03:11:52;;;;;;;;;;;14.40;54.90;;;;;;2065381;28;19933;-73
2021/01/17 03:12:56;;;;;;;;;;;14.30;55.40;;;;;;2066216;28;20283;-73
2021/01/17 03:13:57;;;;;;;;;;;14.30;55.60;;;;;;2066218;28;19926;-73
2021/01/17 03:14:59;;;;;;;;;;;14.30;55.60;;;;;;2066529;28;19926;-73
2021/01/17 03:16:01;;;;;;;;;;;14.40;55.10;;;;;;2066357;28;19925;-74
2021/01/17 03:17:02;;;;;;;;;;;14.50;55.10;;;;;;2066695;28;19926;-73
2021/01/17 03:18:04;;;;;;;;;;;14.40;55.30;;;;;;2066763;28;20314;-73
2021/01/17 03:19:05;;;;;;;;;;;14.30;55.40;;;;;;2066359;28;19926;-73
2021/01/17 03:20:07;;;;;;;;;;;14.40;55.20;;;;;;2066129;28;20383;-73
2021/01/17 03:21:10;;;;;;;;;;;14.30;55.90;;;;;;2066269;28;20370;-74
2021/01/17 03:22:11;;;;;;;;;;;14.40;55.30;;;;;;2066392;28;19929;-73
2021/01/17 03:23:12;;;;;;;;;;;14.50;55.00;;;;;;2066186;28;19926;-73
2021/01/17 03:24:14;;;;;;;;;;;14.60;54.60;;;;;;2065957;28;19930;-73
2021/01/17 03:25:15;;;;;;;;;;;14.60;54.40;;;;;;2065526;28;20296;-73
2021/01/17 03:26:17;;;;;;;;;;;14.60;54.60;;;;;;2065748;28;19933;-73
2021/01/17 03:27:18;;;;;;;;;;;14.50;55.30;;;;;;2065700;28;19937;-73
2021/01/17 03:28:20;;;;;;;;;;;14.50;55.00;;;;;;2064808;28;20028;-73
2021/01/17 03:29:22;;;;;;;;;;;14.50;55.20;;;;;;2065071;28;19925;-73
2021/01/17 03:30:23;;;;;;;;;;;14.60;54.60;;;;;;2065682;28;19937;-73
2021/01/17 03:31:24;;;;;;;;;;;14.60;55.10;;;;;;2064920;28;19926;-73
2021/01/17 03:32:26;;;;;;;;;;;14.60;54.80;;;;;;2065054;28;19972;-73
2021/01/17 03:33:28;;;;;;;;;;;14.30;55.30;;;;;;2065497;28;20330;-73
2021/01/17 03:34:29;;;;;;;;;;;14.40;55.30;;;;;;2065403;28;19926;-73
2021/01/17 03:35:31;;;;;;;;;;;14.40;55.30;;;;;;2065295;28;19956;-74
2021/01/17 03:36:32;;;;;;;;;;;14.40;56.00;;;;;;2065278;28;20310;-73
2021/01/17 03:37:33;;;;;;;;;;;14.00;56.00;;;;;;2064084;28;19932;-73
2021/01/17 03:38:35;;;;;;;;;;;14.20;56.60;;;;;;2057255;28;19926;-73
2021/01/17 03:39:36;;;;;;;;;;;14.30;55.90;;;;;;2057289;28;19926;-74
2021/01/17 03:40:38;;;;;;;;;;;14.40;55.40;;;;;;2057196;28;20169;-73
2021/01/17 03:41:39;;;;;;;;;;;14.50;55.00;;;;;;2057253;28;20491;-73
2021/01/17 03:42:45;;;;;;;;;;;14.50;54.90;;;;;;2057210;28;19946;-73
2021/01/17 03:43:48;;;;;;;;;;;14.40;55.80;;;;;;2057428;28;19933;-73
2021/01/17 03:44:49;;;;;;;;;;;14.20;56.60;;;;;;2057600;28;19930;-73
2021/01/17 03:45:51;;;;;;;;;;;14.30;56.40;;;;;;2057699;28;19932;-73
2021/01/17 03:46:52;;;;;;;;;;;14.30;56.10;;;;;;2058544;28;19937;-73
2021/01/17 03:47:54;;;;;;;;;;;14.30;55.90;;;;;;2058877;28;19998;-73
2021/01/17 03:48:55;;;;;;;;;;;14.30;55.90;;;;;;2058331;28;19926;-73
2021/01/17 03:49:57;;;;;;;;;;;14.40;55.60;;;;;;2064642;28;19926;-73
2021/01/17 03:50:58;;;;;;;;;;;14.30;56.30;;;;;;2064499;28;19926;-74
2021/01/17 03:51:59;;;;;;;;;;;14.20;57.00;;;;;;2057111;28;19964;-73
2021/01/17 03:53:01;;;;;;;;;;;14.10;56.20;;;;;;2057152;28;20268;-73
2021/01/17 03:54:02;;;;;;;;;;;14.30;56.00;;;;;;2057092;28;20409;-73
2021/01/17 03:55:04;;;;;;;;;;;14.10;56.70;;;;;;2057122;28;20392;-73
2021/01/17 03:56:06;;;;;;;;;;;14.00;57.20;;;;;;2064415;28;20233;-73
2021/01/17 03:57:07;;;;;;;;;;;14.10;56.50;;;;;;2064636;28;20295;-73
2021/01/17 03:58:08;;;;;;;;;;;14.30;55.90;;;;;;2057432;28;19926;-73
2021/01/17 03:59:11;;;;;;;;;;;14.50;55.40;;;;;;2057224;28;19981;-73
2021/01/17 04:00:13;;;;;;;;;;;14.40;55.70;;;;;;2057423;28;19937;-74
2021/01/17 04:01:17;;;;;;;;;;;14.30;56.10;;;;;;2057340;28;19926;-74
2021/01/17 04:02:18;;;;;;;;;;;14.30;56.40;;;;;;2057161;28;19933;-73
2021/01/17 04:03:20;;;;;;;;;;;14.30;56.00;;;;;;2057759;28;19930;-73
2021/01/17 04:04:21;;;;;;;;;;;14.20;56.80;;;;;;2064961;28;19945;-73
2021/01/17 04:05:22;;;;;;;;;;;14.30;55.80;;;;;;2065506;28;19925;-73
2021/01/17 04:06:24;;;;;;;;;;;14.50;55.50;;;;;;2065608;28;19926;-73
2021/01/17 04:07:27;;;;;;;;;;;14.50;55.30;;;;;;2065898;28;20413;-73
2021/01/17 04:08:28;;;;;;;;;;;14.10;56.80;;;;;;2065438;28;19944;-74
2021/01/17 04:09:30;;;;;;;;;;;14.20;56.10;;;;;;2065757;28;19930;-73
2021/01/17 04:10:31;;;;;;;;;;;14.10;57.90;;;;;;2065451;28;19945;-73
2021/01/17 04:11:33;;;;;;;;;;;14.00;57.50;;;;;;2065513;28;19926;-73
2021/01/17 04:12:34;;;;;;;;;;;14.20;56.20;;;;;;2065229;28;19926;-73
2021/01/17 04:13:36;;;;;;;;;;;14.10;56.60;;;;;;2065336;28;20386;-73
2021/01/17 04:14:38;;;;;;;;;;;14.20;56.30;;;;;;2065111;28;19926;-73
2021/01/17 04:15:39;;;;;;;;;;;14.40;56.10;;;;;;2064785;28;19926;-74
2021/01/17 04:16:47;;;;;;;;;;;14.10;56.60;;;;;;2064655;28;20402;-73
2021/01/17 04:17:49;;;;;;;;;;;14.10;57.40;;;;;;2064797;28;19973;-73
2021/01/17 04:18:50;;;;;;;;;;;14.30;56.20;;;;;;2065206;28;19937;-73
2021/01/17 04:19:52;;;;;;;;;;;14.30;56.10;;;;;;2065487;28;20400;-73
2021/01/17 04:20:53;;;;;;;;;;;14.40;55.60;;;;;;2065437;28;19926;-73
2021/01/17 04:21:55;;;;;;;;;;;14.50;55.50;;;;;;2065536;28;19926;-73
2021/01/17 04:23:01;;;;;;;;;;;14.60;55.00;;;;;;2065460;28;19925;-73
2021/01/17 04:24:02;;;;;;;;;;;14.70;55.30;;;;;;2064658;28;19926;-73
2021/01/17 04:25:04;;;;;;;;;;;14.10;57.20;;;;;;2065730;28;19925;-74
2021/01/17 04:26:06;;;;;;;;;;;13.90;57.80;;;;;;2065933;28;19926;-74
2021/01/17 04:27:07;;;;;;;;;;;14.10;58.30;;;;;;2065129;28;19957;-74
2021/01/17 04:28:09;;;;;;;;;;;14.00;57.40;;;;;;2064967;28;19926;-73
2021/01/17 04:29:10;;;;;;;;;;;14.10;57.50;;;;;;2064841;28;20385;-73
2021/01/17 04:30:13;;;;;;;;;;;14.00;57.70;;;;;;2065065;28;20259;-73
2021/01/17 04:31:15;;;;;;;;;;;13.90;57.70;;;;;;2064963;28;19936;-73
2021/01/17 04:32:16;;;;;;;;;;;14.20;57.60;;;;;;2072207;28;19925;-73
2021/01/17 04:33:18;;;;;;;;;;;13.70;59.70;;;;;;2072911;28;19925;-74
2021/01/17 04:34:22;;;;;;;;;;;13.30;60.70;;;;;;2072996;28;20184;-73
2021/01/17 04:35:24;;;;;;;;;;;13.30;60.70;;;;;;2073134;28;19929;-73
2021/01/17 04:36:25;;;;;;;;;;;13.30;61.00;;;;;;2073023;28;19926;-73
2021/01/17 04:37:26;;;;;;;;;;;13.50;60.20;;;;;;2072383;28;20305;-73
2021/01/17 04:38:29;;;;;;;;;;;13.20;61.30;;;;;;2056789;28;19934;-73
2021/01/17 04:39:31;;;;;;;;;;;13.20;61.40;;;;;;2056672;28;19933;-73
2021/01/17 04:40:32;;;;;;;;;;;13.00;62.90;;;;;;2057003;28;19933;-73
2021/01/17 04:41:34;;;;;;;;;;;13.20;61.60;;;;;;2056821;28;19933;-73
2021/01/17 04:42:36;;;;;;;;;;;13.20;62.30;;;;;;2056879;28;19926;-74
2021/01/17 04:43:39;;;;;;;;;;;13.20;61.50;;;;;;2056741;28;19926;-73
2021/01/17 04:44:43;;;;;;;;;;;13.20;61.10;;;;;;2056885;28;20020;-73
2021/01/17 04:45:47;;;;;;;;;;;13.40;60.30;;;;;;2056646;28;20371;-73
2021/01/17 04:46:49;;;;;;;;;;;13.60;59.60;;;;;;2056700;28;19949;-73
2021/01/17 04:47:51;;;;;;;;;;;13.80;58.60;;;;;;2056725;28;19933;-73
2021/01/17 04:48:56;;;;;;;;;;;13.80;59.10;;;;;;2056738;28;19933;-73
2021/01/17 04:50:00;;;;;;;;;;;13.90;58.20;;;;;;2056116;28;20496;-73
2021/01/17 04:51:02;;;;;;;;;;;14.10;57.60;;;;;;2056219;28;19934;-73
2021/01/17 04:52:07;;;;;;;;;;;13.70;60.10;;;;;;2056732;28;19926;-73
2021/01/17 04:53:09;;;;;;;;;;;13.40;61.10;;;;;;2056831;28;19926;-73
2021/01/17 04:54:11;;;;;;;;;;;13.60;59.50;;;;;;2056709;28;20271;-73
2021/01/17 04:55:12;;;;;;;;;;;13.70;59.20;;;;;;2056204;28;19934;-73
2021/01/17 04:56:20;;;;;;;;;;;13.90;58.70;;;;;;2048179;28;20409;-73
2021/01/17 04:57:26;;;;;;;;;;;14.00;58.70;;;;;;2056406;28;19934;-73
2021/01/17 04:58:31;;;;;;;;;;;13.80;58.60;;;;;;2056866;28;19926;-73
2021/01/17 04:59:35;;;;;;;;;;;14.00;58.40;;;;;;2056065;28;19926;-73
2021/01/17 05:00:39;;;;;;;;;;;14.00;58.00;;;;;;2055984;28;20295;-73
2021/01/17 05:01:49;;;;;;;;;;;13.90;58.10;;;;;;2056694;28;20302;-73
2021/01/17 05:03:00;;;;;;;;;;;14.00;57.80;;;;;;2056477;28;19926;-73
2021/01/17 05:04:12;;;;;;;;;;;13.80;58.60;;;;;;2061744;28;19926;-73
2021/01/17 05:05:18;;;;;;;;;;;13.80;59.10;;;;;;2058231;28;20262;-73
2021/01/17 05:06:24;;;;;;;;;;;13.90;58.40;;;;;;2056746;28;19926;-73
2021/01/17 05:07:30;;;;;;;;;;;13.50;61.20;;;;;;2056633;28;19926;-73
2021/01/17 05:08:32;;;;;;;;;;;13.40;60.20;;;;;;2056742;28;20282;-73
2021/01/17 05:09:37;;;;;;;;;;;13.40;60.70;;;;;;2056879;28;19933;-73
2021/01/17 05:10:38;;;;;;;;;;;13.60;59.90;;;;;;2056934;28;20378;-74
2021/01/17 05:11:40;;;;;;;;;;;13.30;61.10;;;;;;2056964;28;20406;-74
2021/01/17 05:12:50;;;;;;;;;;;13.50;60.60;;;;;;2056437;28;20081;-74
2021/01/17 05:14:02;;;;;;;;;;;13.30;61.20;;;;;;2049919;28;19926;-73
2021/01/17 05:15:04;;;;;;;;;;;13.50;60.20;;;;;;2057975;28;19926;-73
2021/01/17 05:16:07;;;;;;;;;;;13.50;60.10;;;;;;2064365;28;20096;-73
2021/01/17 05:17:10;;;;;;;;;;;13.60;59.60;;;;;;2056531;28;19972;-73
2021/01/17 05:18:11;;;;;;;;;;;13.60;59.70;;;;;;2056692;28;19933;-74
2021/01/17 05:19:14;;;;;;;;;;;13.60;59.50;;;;;;2056634;28;20281;-73
2021/01/17 05:20:16;;;;;;;;;;;13.60;59.40;;;;;;2056098;28;19934;-73
2021/01/17 05:21:19;;;;;;;;;;;13.70;59.00;;;;;;2056159;28;19933;-73
2021/01/17 05:22:21;;;;;;;;;;;13.90;58.10;;;;;;2056146;28;19934;-73
2021/01/17 05:23:22;;;;;;;;;;;14.00;58.20;;;;;;2056016;28;20306;-74
2021/01/17 05:24:25;;;;;;;;;;;14.00;58.10;;;;;;2056037;28;20394;-74
2021/01/17 05:25:27;;;;;;;;;;;14.00;57.90;;;;;;2056234;28;19955;-74
2021/01/17 05:26:28;;;;;;;;;;;14.00;57.90;;;;;;2057203;28;19926;-73
2021/01/17 05:27:29;;;;;;;;;;;14.00;57.70;;;;;;2058063;28;19926;-73
2021/01/17 05:28:31;;;;;;;;;;;14.10;57.60;;;;;;2066546;28;19933;-73
2021/01/17 05:29:33;;;;;;;;;;;14.00;57.80;;;;;;2065931;28;19933;-74
2021/01/17 05:30:34;;;;;;;;;;;14.20;57.00;;;;;;2066270;28;19926;-73
2021/01/17 05:31:36;;;;;;;;;;;14.40;56.80;;;;;;2065474;28;20299;-73
2021/01/17 05:32:38;;;;;;;;;;;14.30;57.00;;;;;;2065884;28;20005;-73
2021/01/17 05:33:40;;;;;;;;;;;14.30;56.80;;;;;;2065617;28;19926;-73
2021/01/17 05:34:42;;;;;;;;;;;14.40;56.40;;;;;;2065416;28;19925;-74
2021/01/17 05:35:44;;;;;;;;;;;14.50;56.30;;;;;;2064760;28;19925;-74
2021/01/17 05:36:45;;;;;;;;;;;14.40;56.40;;;;;;2064773;28;19933;-73
2021/01/17 05:37:47;;;;;;;;;;;14.30;56.60;;;;;;2064344;28;19925;-73
2021/01/17 05:38:57;;;;;;;;;;;14.50;56.20;;;;;;2064533;28;20172;-73
2021/01/17 05:40:00;;;;;;;;;;;14.60;56.10;;;;;;2064513;28;19926;-73
2021/01/17 05:41:01;;;;;;;;;;;14.40;56.10;;;;;;2064615;28;20386;-73
2021/01/17 05:42:06;;;;;;;;;;;14.40;56.50;;;;;;2064730;28;19926;-73
2021/01/17 05:43:07;;;;;;;;;;;14.40;56.40;;;;;;2064638;28;19976;-73
2021/01/17 05:44:09;;;;;;;;;;;14.50;56.10;;;;;;2064794;28;19933;-73
2021/01/17 05:45:11;;;;;;;;;;;14.50;56.00;;;;;;2064778;28;19926;-73
2021/01/17 05:46:13;;;;;;;;;;;14.60;55.90;;;;;;2064380;28;19926;-73
2021/01/17 05:47:18;;;;;;;;;;;14.60;55.70;;;;;;2064583;28;20405;-73
2021/01/17 05:48:21;;;;;;;;;;;14.80;55.50;;;;;;2064479;28;19930;-73
2021/01/17 05:49:24;;;;;;;;;;;14.50;56.00;;;;;;2064617;28;19952;-73
2021/01/17 05:50:26;;;;;;;;;;;14.70;55.70;;;;;;2064598;28;19940;-74
2021/01/17 05:51:28;;;;;;;;;;;14.50;55.90;;;;;;2064793;28;19926;-73
2021/01/17 05:52:34;;;;;;;;;;;14.60;56.10;;;;;;2064681;28;19937;-73
2021/01/17 05:53:36;;;;;;;;;;;14.60;55.80;;;;;;2064495;28;19933;-73
2021/01/17 05:54:39;;;;;;;;;;;14.20;57.50;;;;;;2064677;28;19926;-73
2021/01/17 05:55:42;;;;;;;;;;;14.10;57.40;;;;;;2064510;28;19929;-73
2021/01/17 05:56:43;;;;;;;;;;;14.30;56.80;;;;;;2064505;28;20408;-73
2021/01/17 05:57:45;;;;;;;;;;;14.20;58.30;;;;;;2064808;28;19964;-73
2021/01/17 05:58:46;;;;;;;;;;;14.30;57.40;;;;;;2064848;28;19926;-74
2021/01/17 05:59:48;;;;;;;;;;;14.00;58.20;;;;;;2064765;28;19926;-73
2021/01/17 06:00:49;;;;;;;;;;;14.00;58.00;;;;;;2064979;28;19926;-74
2021/01/17 06:01:51;;;;;;;;;;;13.90;58.10;;;;;;2064836;28;19934;-73
2021/01/17 06:02:53;;;;;;;;;;;13.80;58.50;;;;;;2064594;28;19929;-73
2021/01/17 06:03:57;;;;;;;;;;;14.00;58.20;;;;;;2064824;28;20012;-74